AirNav   ProFlight Series 2 Aviation Headset
 
 362 users online  

AK86 Kramer Airport
Big Lake, Alaska, USA

GOING TO BIG LAKE?


FAA INFORMATION EFFECTIVE 18 JUNE 2020

Location

FAA Identifier: AK86
Lat/Long: 61-34-24.7400N 149-54-40.8600W
61-34.412333N 149-54.681000W
61.5735389,-149.9113500
(estimated)
Elevation: 150 ft. / 46 m (estimated)
From city: 5 miles W of BIG LAKE, AK
Time zone: UTC -8 (UTC -9 during Standard Time)
Zip code: 99623

Airport Operations

Airport use: Private use. Permission required prior to landing
Activation date: 01/2007
Control tower: no
ARTCC: ANCHORAGE CENTER
FSS: KENAI FLIGHT SERVICE STATION [907-283-7211]
Attendance: UNATNDD
Segmented circle: no

Airport Communications

CTAF: 122.8
WX AWOS-3P at IYS (11 nm E): 135.25 (907-373-3801)
WX AWOS-3P at BCV (15 nm SE): 135.55 (907-688-0826)
WX ASOS at FRN (20 nm S): 134.25

Nearby radio navigation aids

VOR radial/distance  VOR name  Freq  Var
BGQr062/1.6BIG LAKE VORTAC112.5019E
TEDr345/24.4ANCHORAGE VOR/DME113.1518E

 
NDB name  Hdg/Dist  Freq  Var  ID
CAMPBELL LAKE353/24.533816ECMQ -.-. -- --.-

Airport Services

Runway Information

Runway 4/22

Dimensions: 850 x 70 ft. / 259 x 21 m
Surface: turf/gravel
RUNWAY 4  RUNWAY 22
Traffic pattern: leftleft

Airport Ownership and Management from official FAA records

Ownership: Privately-owned
Owner: WILLIAM L. KRAMER
P.O. BOX 521783
BIG LAKE, AK 99652
Phone 907-440-5000
Manager: WILLIAM L. KRAMER
P.O. BOX 521783
BIG LAKE, AK 99652
Phone 907-440-5000

Airport Operational Statistics

Aircraft based on the field: 2
Single engine airplanes: 2
    

Instrument Procedures

There are no published instrument procedures at AK86.

Some nearby airports with instrument procedures:

PAGQ - Big Lake Airport (4 nm SE)
PAWS - Wasilla Airport (11 nm E)
PAUO - Willow Airport (12 nm N)
PAED - Elmendorf Air Force Base (20 nm S)
PAFR - Bryant Army Airfield Heliport (20 nm S)
 
Loc | Ops | Rwys | IFR | FBO | Links
Com | Nav | Svcs | Stats | Notes

Crowley
 
Area around AK86 (Kramer Airport)
 
Road maps at: MapQuest Bing Google
 
Aerial photo
No photo
 
Sectional chart

 
Airport distance calculator
Flying to Kramer Airport? Find the distance to fly.

From to AK86

Sunrise and sunset
Times for 11-Jul-2020
 Local
(UTC-8)
 Zulu
(UTC)
Morning civil twilight02:5210:52
Sunrise04:4312:43
Sunset23:2807:28
Evening civil twilight01:1809:18

Current date and time
Zulu (UTC)  11-Jul-2020 10:22:22
Local (UTC-8)  11-Jul-2020 02:22:22
 
METAR
PABV 
15nm SE 
110956Z AUTO 25003KT 10SM FEW003 SCT046 OVC090 13/13 A2977 RMK AO2 RAB24E35 SLP086 P0000 T01330128
PAED 
20nm S 
110956Z 15004KT 10SM BKN031 16/12 A2976 RMK AO2A SLP073 T01590115 $
PAFR 
20nm S 
110958Z AUTO 00000KT 10SM OVC028 14/12 A2974 RMK AO2 SLP076 T01390124 $
PAMR 
21nm S 
110953Z 18005KT 10SM SCT034 BKN043 BKN055 16/10 A2975 RMK AO2 SLP075 T01560100
TAF
PAED 
20nm S 
110200Z 1102/1208 VRB06KT 9999 VCSH FEW030 SCT120 BKN200 QNH2970INS TEMPO 1102/1112 23010G15KT 9000 SHRA VCTS BKN030CB BKN120 BKN200 BECMG 1111/1112 VRB06KT 9999 NSW BKN030 BKN070 QNH2970INS BECMG 1117/1118 VRB06KT 9999 VCSH BKN020 OVC070 QNH2969INS BECMG 1202/1203 VRB06KT 9999 NSW BKN035 BKN100 QNH2967INS QNH2972INS TX19/1103Z TN13/1113Z
PAAQ 
24nm E 
110522Z 1106/1206 VRB03KT P6SM VCSH SCT050 BKN080 FM112200 14006KT P6SM -SHRA VCTS BKN060CB
NOTAMs
Click for the latest NOTAMs
NOTAMs are issued by the DoD/FAA and will open in a separate window not controlled by AirNav.

 

 
 

Would you like to see your business listed on this page?

 If your business provides an interesting product or service to pilots, flight crews, aircraft, or users of the Kramer Airport, you should consider listing it here.  To start the listing process, click on the button below
 
Add a business
 

Other Pages about Kramer Airport

Update a link
 
Copyright © AirNav, LLC. All rights reserved. Privacy Policy  Contact